createdAt,value
2023-03-15T00:02:35.454Z,99394.48
2023-03-15T00:06:02.050Z,99402.67
2023-03-15T00:09:28.514Z,99400.77
2023-03-15T00:12:42.686Z,99414.55
2023-03-15T00:16:00.106Z,99425.84
2023-03-15T00:19:08.716Z,99424.54
2023-03-15T00:22:27.297Z,99433.81
2023-03-15T00:25:50.496Z,99437.05
2023-03-15T00:28:58.893Z,99439.21
2023-03-15T00:32:07.031Z,99442.86
2023-03-15T00:35:18.800Z,99451.52
2023-03-15T00:38:27.048Z,99457.84
2023-03-15T00:41:41.779Z,99455.77
2023-03-15T00:44:56.230Z,99465.70
2023-03-15T00:48:19.457Z,99471.17
2023-03-15T00:51:45.587Z,99472.83
2023-03-15T00:54:54.523Z,99474.20
2023-03-15T00:58:03.185Z,99471.34
2023-03-15T01:01:19.674Z,99478.50
2023-03-15T01:04:36.446Z,99485.83
2023-03-15T01:07:45.694Z,99494.02
2023-03-15T01:10:54.511Z,99498.98
2023-03-15T01:14:20.036Z,99507.84
2023-03-15T01:17:28.915Z,99517.52
2023-03-15T01:20:35.032Z,99520.58
2023-03-15T01:23:42.823Z,99523.70
2023-03-15T01:26:55.707Z,99522.27
2023-03-15T01:30:21.388Z,99532.94
2023-03-15T01:33:40.419Z,99538.51
2023-03-15T01:36:53.979Z,99546.79
2023-03-15T01:40:06.534Z,99561.37
2023-03-15T01:43:18.163Z,99568.58
2023-03-15T01:46:43.878Z,99571.77
2023-03-15T01:49:55.634Z,99576.15
2023-03-15T01:53:03.667Z,99580.30
2023-03-15T01:56:20.752Z,99586.52
2023-03-15T01:59:41.764Z,99598.70
2023-03-15T02:02:50.836Z,99598.48
2023-03-15T02:06:18.084Z,99604.75
2023-03-15T02:09:32.218Z,99603.06
2023-03-15T02:12:42.888Z,99611.80
2023-03-15T02:15:48.454Z,99623.39
2023-03-15T02:19:00.152Z,99626.54
2023-03-15T02:22:24.156Z,99635.00
2023-03-15T02:25:46.672Z,99639.06
2023-03-15T02:29:04.346Z,99642.88
2023-03-15T02:32:10.562Z,99651.59
2023-03-15T02:35:36.723Z,99657.22
2023-03-15T02:39:03.585Z,99660.34
2023-03-15T02:42:14.938Z,99663.70
2023-03-15T02:45:33.037Z,99668.41
2023-03-15T02:48:59.504Z,99676.51
2023-03-15T02:52:18.396Z,99681.77
2023-03-15T02:55:42.979Z,99685.75
2023-03-15T02:58:57.629Z,99687.73
2023-03-15T03:02:22.378Z,99691.70
2023-03-15T03:05:30.383Z,99698.21
2023-03-15T03:08:51.485Z,99700.69
2023-03-15T03:12:10.323Z,99702.64
2023-03-15T03:15:28.690Z,99705.92
2023-03-15T03:18:53.345Z,99706.48
2023-03-15T03:22:13.260Z,99710.35
2023-03-15T03:25:33.028Z,99718.69
2023-03-15T03:28:51.346Z,99724.55
2023-03-15T03:32:00.949Z,99732.44
2023-03-15T03:35:26.765Z,99741.30
2023-03-15T03:38:54.084Z,99745.84
2023-03-15T03:42:12.623Z,99747.69
2023-03-15T03:45:38.558Z,99759.07
2023-03-15T03:48:57.368Z,99767.77
2023-03-15T03:52:23.031Z,99773.16
2023-03-15T03:55:49.204Z,99780.88
2023-03-15T03:59:14.814Z,99789.02
2023-03-15T04:02:42.755Z,99790.98
2023-03-15T04:06:05.752Z,99798.12
2023-03-15T04:09:31.653Z,99803.10
2023-03-15T04:12:40.269Z,99810.55
2023-03-15T04:15:57.823Z,99819.46
2023-03-15T04:19:12.888Z,99830.78
2023-03-15T04:22:38.583Z,99837.33
2023-03-15T04:26:06.996Z,99846.08
2023-03-15T04:29:32.940Z,99847.00
2023-03-15T04:33:03.484Z,99850.02
2023-03-15T04:36:31.907Z,99856.06
2023-03-15T04:40:07.204Z,99853.45
2023-03-15T04:43:38.509Z,99853.86
2023-03-15T04:47:07.059Z,99855.30
2023-03-15T04:50:32.813Z,99857.97
2023-03-15T04:53:58.594Z,99856.33
2023-03-15T04:57:26.870Z,99859.54
2023-03-15T05:00:41.617Z,99865.38
2023-03-15T05:04:07.590Z,99872.09
2023-03-15T05:07:34.371Z,99879.14
2023-03-15T05:11:11.935Z,99881.86
2023-03-15T05:14:46.326Z,99887.21
2023-03-15T05:18:12.790Z,99891.85
2023-03-15T05:21:41.238Z,99892.98
2023-03-15T05:25:05.621Z,99896.60
2023-03-15T05:28:37.218Z,99902.55
2023-03-15T05:32:04.608Z,99905.36
2023-03-15T05:35:39.318Z,99911.91
2023-03-15T05:39:08.173Z,99919.52
2023-03-15T05:42:34.138Z,99929.92
2023-03-15T05:46:00.724Z,99937.20
2023-03-15T05:49:27.353Z,99941.88
2023-03-15T05:53:05.020Z,99942.98
2023-03-15T05:56:34.514Z,99948.17
2023-03-15T06:00:08.411Z,99951.05
2023-03-15T06:03:19.879Z,99957.52
2023-03-15T06:06:45.841Z,99965.02
2023-03-15T06:10:05.903Z,99973.23
2023-03-15T06:13:32.390Z,99975.67
2023-03-15T06:16:58.746Z,99984.06
2023-03-15T06:20:24.468Z,99988.27
2023-03-15T06:23:50.692Z,99990.68
2023-03-15T06:27:16.382Z,99990.89
2023-03-15T06:30:42.446Z,99997.31
2023-03-15T06:34:09.967Z,100008.48
2023-03-15T06:37:37.109Z,100009.05
2023-03-15T06:41:05.090Z,100017.30
2023-03-15T06:44:30.802Z,100024.02
2023-03-15T06:47:56.911Z,100029.77
2023-03-15T06:51:24.273Z,100036.77
2023-03-15T06:54:49.984Z,100043.51
2023-03-15T06:58:15.940Z,100051.19
2023-03-15T07:01:42.659Z,100065.13
2023-03-15T07:05:09.507Z,100069.86
2023-03-15T07:08:35.367Z,100074.59
2023-03-15T07:12:01.423Z,100074.15
2023-03-15T07:15:27.209Z,100084.07
2023-03-15T07:18:55.519Z,100089.98
2023-03-15T07:22:22.491Z,100092.48
2023-03-15T07:25:55.096Z,100095.70
2023-03-15T07:29:21.230Z,100098.14
2023-03-15T07:32:47.911Z,100098.16
2023-03-15T07:36:14.640Z,100099.46
2023-03-15T07:39:41.356Z,100104.30
2023-03-15T07:43:07.083Z,100111.95
2023-03-15T07:46:32.815Z,100107.59
2023-03-15T07:49:58.609Z,100111.76
2023-03-15T07:53:24.391Z,100113.94
2023-03-15T07:56:50.377Z,100113.77
2023-03-15T08:00:17.184Z,100111.73
2023-03-15T08:03:42.956Z,100120.16
2023-03-15T08:07:09.026Z,100119.68
2023-03-15T08:10:35.672Z,100120.83
2023-03-15T08:14:01.508Z,100121.63
2023-03-15T08:18:01.013Z,100128.11
2023-03-15T08:21:26.806Z,100137.42
2023-03-15T08:24:53.359Z,100144.49
2023-03-15T08:28:19.410Z,100140.63
2023-03-15T08:31:45.369Z,100148.42
2023-03-15T08:35:15.464Z,100151.98
2023-03-15T08:39:02.775Z,100160.10
2023-03-15T08:42:28.528Z,100168.41
2023-03-15T08:46:01.136Z,100165.69
2023-03-15T08:49:27.458Z,100166.44
2023-03-15T08:52:53.288Z,100176.44
2023-03-15T08:56:22.287Z,100170.71
2023-03-15T08:59:47.946Z,100173.02
2023-03-15T09:03:16.087Z,100176.09
2023-03-15T09:06:42.295Z,100188.27
2023-03-15T09:09:48.277Z,100182.81
2023-03-15T09:13:13.981Z,100187.45
2023-03-15T09:16:31.034Z,100192.50
2023-03-15T09:19:47.616Z,100197.35
2023-03-15T09:23:00.865Z,100204.69
2023-03-15T09:26:06.737Z,100205.40
2023-03-15T09:29:23.256Z,100221.76
2023-03-15T09:32:36.236Z,100218.52
2023-03-15T09:35:57.166Z,100229.05
2023-03-15T09:39:08.486Z,100223.67
2023-03-15T09:42:32.601Z,100229.73
2023-03-15T09:46:04.063Z,100232.19
2023-03-15T09:49:15.370Z,100238.40
2023-03-15T09:53:03.399Z,100234.41
2023-03-15T09:56:19.921Z,100241.88
2023-03-15T09:59:47.995Z,100239.96
2023-03-15T10:03:18.343Z,100244.48
2023-03-15T10:06:37.769Z,100241.10
2023-03-15T10:09:58.489Z,100236.55
2023-03-15T10:13:33.114Z,100243.27
2023-03-15T10:16:50.113Z,100248.34
2023-03-15T10:20:19.148Z,100261.26
2023-03-15T10:23:42.869Z,100255.13
2023-03-15T10:27:00.264Z,100262.25
2023-03-15T10:30:14.392Z,100258.00
2023-03-15T10:33:27.528Z,100254.30
2023-03-15T10:36:38.953Z,100256.33
2023-03-15T10:39:57.133Z,100255.52
2023-03-15T10:43:23.737Z,100257.14
2023-03-15T10:46:39.519Z,100257.31
2023-03-15T10:50:05.737Z,100256.84
2023-03-15T10:53:31.488Z,100271.83
2023-03-15T10:56:43.291Z,100266.10
2023-03-15T10:59:58.809Z,100267.77
2023-03-15T11:03:08.201Z,100261.83
2023-03-15T11:06:22.869Z,100271.05
2023-03-15T11:09:52.721Z,100287.45
2023-03-15T11:13:22.700Z,100289.38
2023-03-15T11:16:34.650Z,100293.73
2023-03-15T11:19:47.629Z,100291.81
2023-03-15T11:22:55.300Z,100289.11
2023-03-15T11:26:31.926Z,100291.27
2023-03-15T11:29:52.974Z,100292.35
2023-03-15T11:33:03.586Z,100304.96
2023-03-15T11:36:31.969Z,100303.10
2023-03-15T11:39:40.341Z,100290.98
2023-03-15T11:42:50.593Z,100289.25
2023-03-15T11:45:59.036Z,100280.11
2023-03-15T11:49:32.594Z,100287.13
2023-03-15T11:52:51.186Z,100277.31
2023-03-15T11:56:24.865Z,100272.50
2023-03-15T11:59:37.021Z,100282.75
2023-03-15T12:02:54.713Z,100285.80
2023-03-15T12:06:05.771Z,100278.36
2023-03-15T12:09:49.117Z,100294.11
2023-03-15T12:13:00.546Z,100288.77
2023-03-15T12:16:09.260Z,100292.11
2023-03-15T12:19:18.234Z,100304.05
2023-03-15T12:22:34.369Z,100325.99
2023-03-15T12:25:54.356Z,100332.63
2023-03-15T12:29:29.587Z,100316.47
2023-03-15T12:32:57.070Z,100303.34
2023-03-15T12:36:06.160Z,100304.88
2023-03-15T12:39:41.694Z,100303.67
2023-03-15T12:43:04.523Z,100296.94
2023-03-15T12:46:30.340Z,100302.43
2023-03-15T12:49:46.810Z,100311.98
2023-03-15T12:53:00.784Z,100331.58
2023-03-15T12:56:34.361Z,100337.70
2023-03-15T13:00:01.648Z,100336.63
2023-03-15T13:03:11.980Z,100360.67
2023-03-15T13:06:32.717Z,100342.24
2023-03-15T13:10:11.487Z,100331.66
2023-03-15T13:14:03.101Z,100324.83
2023-03-15T13:17:19.759Z,100328.53
2023-03-15T13:20:49.527Z,100329.89
2023-03-15T13:24:21.774Z,100335.02
2023-03-15T13:27:52.428Z,100330.53
2023-03-15T13:31:14.554Z,100334.25
2023-03-15T13:34:24.517Z,100348.91
2023-03-15T13:37:41.989Z,100359.84
2023-03-15T13:41:17.753Z,100359.89
2023-03-15T13:44:43.673Z,100357.51
2023-03-15T13:48:13.405Z,100365.35
2023-03-15T13:51:40.234Z,100373.67
2023-03-15T13:54:46.184Z,100377.14
2023-03-15T13:58:12.536Z,100379.95
2023-03-15T14:01:43.054Z,100380.48
2023-03-15T14:05:11.440Z,100379.92
2023-03-15T14:08:31.915Z,100385.65
2023-03-15T14:12:06.062Z,100389.37
2023-03-15T14:15:24.988Z,100387.63
2023-03-15T14:18:55.181Z,100381.70
2023-03-15T14:22:21.109Z,100382.53
2023-03-15T14:25:37.471Z,100381.19
2023-03-15T14:29:07.625Z,100383.77
2023-03-15T14:32:34.111Z,100386.44
2023-03-15T14:35:44.678Z,100389.20
2023-03-15T14:38:55.349Z,100388.29
2023-03-15T14:42:21.216Z,100386.71
2023-03-15T14:45:29.481Z,100390.32
2023-03-15T14:48:55.281Z,100391.95
2023-03-15T14:52:21.145Z,100395.02
2023-03-15T14:55:46.905Z,100392.67
2023-03-15T14:59:14.247Z,100396.17
2023-03-15T15:02:40.327Z,100403.71
2023-03-15T15:06:07.929Z,100405.08
2023-03-15T15:09:34.038Z,100407.52
2023-03-15T15:12:39.725Z,100416.84
2023-03-15T15:16:05.928Z,100420.80
2023-03-15T15:19:31.834Z,100423.42
2023-03-15T15:22:48.578Z,100424.52
2023-03-15T15:26:18.405Z,100430.73
2023-03-15T15:29:44.976Z,100427.80
2023-03-15T15:33:11.642Z,100434.36
2023-03-15T15:36:41.572Z,100440.63
2023-03-15T15:40:00.676Z,100438.67
2023-03-15T15:43:26.589Z,100435.77
2023-03-15T15:46:42.423Z,100443.84
2023-03-15T15:49:48.085Z,100448.52
2023-03-15T15:53:16.760Z,100448.89
2023-03-15T15:56:36.747Z,100449.72
2023-03-15T15:59:42.338Z,100455.66
2023-03-15T16:03:14.874Z,100456.85
2023-03-15T16:06:31.388Z,100457.75
2023-03-15T16:09:59.088Z,100461.52
2023-03-15T16:13:14.726Z,100461.45
2023-03-15T16:16:34.257Z,100463.12
2023-03-15T16:19:58.580Z,100468.63
2023-03-15T16:23:19.589Z,100471.16
2023-03-15T16:26:37.668Z,100470.05
2023-03-15T16:29:47.828Z,100482.13
2023-03-15T16:33:16.449Z,100492.12
2023-03-15T16:36:43.642Z,100500.23
2023-03-15T16:40:14.745Z,100503.17
2023-03-15T16:43:40.532Z,100507.67
2023-03-15T16:46:55.993Z,100504.67
2023-03-15T16:50:21.801Z,100513.47
2023-03-15T16:53:47.454Z,100515.48
2023-03-15T16:57:15.374Z,100520.09
2023-03-15T17:00:44.361Z,100521.96
2023-03-15T17:04:00.041Z,100526.16
2023-03-15T17:07:28.911Z,100532.24
2023-03-15T17:10:54.761Z,100538.48
2023-03-15T17:14:23.699Z,100542.60
2023-03-15T17:18:37.023Z,100550.21
2023-03-15T17:21:39.796Z,100554.08
2023-03-15T17:24:55.698Z,100561.59
2023-03-15T17:28:22.829Z,100564.84
2023-03-15T17:31:52.632Z,100569.95
2023-03-15T17:35:19.823Z,100569.81
2023-03-15T17:38:42.565Z,100571.37
2023-03-15T17:42:10.976Z,100577.11
2023-03-15T17:45:37.138Z,100582.11
2023-03-15T17:49:04.858Z,100581.45
2023-03-15T17:52:31.213Z,100588.16
2023-03-15T17:55:55.504Z,100590.10
2023-03-15T17:59:13.231Z,100593.21
2023-03-15T18:02:46.210Z,100593.29
2023-03-15T18:06:09.754Z,100594.11
2023-03-15T18:09:29.864Z,100597.83
2023-03-15T18:12:55.944Z,100606.09
2023-03-15T18:16:21.783Z,100608.27
2023-03-15T18:19:38.501Z,100608.33
2023-03-15T18:22:54.249Z,100607.76
2023-03-15T18:26:21.673Z,100610.55
2023-03-15T18:29:40.233Z,100617.05
2023-03-15T18:33:06.136Z,100629.27
2023-03-15T18:36:52.032Z,100636.71
2023-03-15T18:40:18.888Z,100643.33
2023-03-15T18:43:49.920Z,100647.04
2023-03-15T18:47:08.032Z,100644.84
2023-03-15T18:50:21.463Z,100645.27
2023-03-15T18:53:47.408Z,100642.67
2023-03-15T18:57:02.964Z,100645.30
2023-03-15T19:00:29.986Z,100658.05
2023-03-15T19:03:55.589Z,100662.92
2023-03-15T19:07:22.276Z,100667.15
2023-03-15T19:10:49.467Z,100668.18
2023-03-15T19:13:58.655Z,100677.35
2023-03-15T19:17:23.677Z,100673.39
2023-03-15T19:20:47.647Z,100670.02
2023-03-15T19:24:15.377Z,100681.27
2023-03-15T19:27:40.214Z,100678.29
2023-03-15T19:31:00.028Z,100686.45
2023-03-15T19:34:30.639Z,100691.10
2023-03-15T19:37:57.187Z,100691.27
2023-03-15T19:41:23.020Z,100688.58
2023-03-15T19:44:49.478Z,100698.84
2023-03-15T19:48:11.456Z,100699.05
2023-03-15T19:51:20.048Z,100705.98
2023-03-15T19:54:31.012Z,100709.70
2023-03-15T19:57:48.165Z,100713.39
2023-03-15T20:01:16.044Z,100716.31
2023-03-15T20:04:25.088Z,100715.84
2023-03-15T20:07:33.095Z,100721.45
2023-03-15T20:10:45.351Z,100725.99
2023-03-15T20:14:11.217Z,100725.01
2023-03-15T20:17:37.437Z,100729.92
2023-03-15T20:21:04.219Z,100735.48
2023-03-15T20:24:12.497Z,100738.55
2023-03-15T20:27:39.641Z,100738.88
2023-03-15T20:30:58.788Z,100741.27
2023-03-15T20:34:11.263Z,100742.01
2023-03-15T20:37:37.605Z,100743.84
2023-03-15T20:40:54.638Z,100737.42
2023-03-15T20:44:21.464Z,100743.16
2023-03-15T20:47:41.932Z,100739.41
2023-03-15T20:51:10.642Z,100741.02
2023-03-15T20:54:37.966Z,100739.17
2023-03-15T20:58:04.969Z,100749.81
2023-03-15T21:01:32.058Z,100749.98
2023-03-15T21:04:57.662Z,100757.34
2023-03-15T21:08:17.899Z,100761.75
2023-03-15T21:11:47.463Z,100766.51
2023-03-15T21:15:17.974Z,100769.84
2023-03-15T21:18:53.798Z,100773.38
2023-03-15T21:22:19.589Z,100774.21
2023-03-15T21:25:45.313Z,100776.15
2023-03-15T21:28:59.842Z,100775.92
2023-03-15T21:32:08.424Z,100780.63
2023-03-15T21:35:14.011Z,100783.96
2023-03-15T21:38:32.312Z,100785.45
2023-03-15T21:41:50.794Z,100785.14
2023-03-15T21:44:56.345Z,100787.36
2023-03-15T21:48:11.847Z,100790.13
2023-03-15T21:51:22.460Z,100792.33
2023-03-15T21:54:28.941Z,100796.90
2023-03-15T21:57:34.805Z,100797.98
2023-03-15T22:00:58.101Z,100801.31
2023-03-15T22:04:06.787Z,100799.55
2023-03-15T22:07:14.886Z,100808.75
2023-03-15T22:10:40.750Z,100810.33
2023-03-15T22:13:53.819Z,100813.37
2023-03-15T22:17:13.426Z,100811.33
2023-03-15T22:20:19.205Z,100812.98
2023-03-15T22:23:24.848Z,100809.58
2023-03-15T22:26:43.039Z,100812.14
2023-03-15T22:29:53.311Z,100809.40
2023-03-15T22:32:59.359Z,100817.31
2023-03-15T22:36:17.144Z,100815.11
2023-03-15T22:39:27.853Z,100810.49
2023-03-15T22:42:46.908Z,100810.86
2023-03-15T22:46:12.981Z,100808.45
2023-03-15T22:49:18.485Z,100812.29
2023-03-15T22:52:29.855Z,100809.19
2023-03-15T22:55:37.790Z,100807.98
2023-03-15T22:58:55.611Z,100808.39
2023-03-15T23:02:12.077Z,100810.26
2023-03-15T23:05:21.386Z,100813.48
2023-03-15T23:08:26.822Z,100813.84
2023-03-15T23:11:35.425Z,100815.46
2023-03-15T23:14:52.142Z,100818.11
2023-03-15T23:18:01.891Z,100818.93
2023-03-15T23:21:11.204Z,100824.11
2023-03-15T23:24:19.847Z,100821.81
2023-03-15T23:27:26.193Z,100826.48
2023-03-15T23:30:36.104Z,100834.45
2023-03-15T23:33:47.366Z,100841.98
2023-03-15T23:36:55.269Z,100843.23
2023-03-15T23:40:09.495Z,100846.21
2023-03-15T23:43:18.754Z,100845.61
2023-03-15T23:46:36.179Z,100851.83
2023-03-15T23:49:43.683Z,100854.48
2023-03-15T23:52:52.542Z,100854.83
2023-03-15T23:56:01.412Z,100856.29
2023-03-15T23:59:14.604Z,100859.69
